sensor_id;sensor_type;location;lat;lon;timestamp;P1;durP1;ratioP1;P2;durP2;ratioP2
52898;SDS011;38763;53.096;6.062;2022-07-04T00:00:18;7.40;;;3.83;;
52898;SDS011;38763;53.096;6.062;2022-07-04T00:02:44;6.10;;;4.00;;
52898;SDS011;38763;53.096;6.062;2022-07-04T00:05:11;8.18;;;3.53;;
52898;SDS011;38763;53.096;6.062;2022-07-04T00:07:38;7.32;;;4.05;;
52898;SDS011;38763;53.096;6.062;2022-07-04T00:10:08;7.30;;;4.18;;
52898;SDS011;38763;53.096;6.062;2022-07-04T00:12:35;7.03;;;4.28;;
52898;SDS011;38763;53.096;6.062;2022-07-04T00:15:01;8.85;;;4.20;;
52898;SDS011;38763;53.096;6.062;2022-07-04T00:17:27;7.32;;;4.03;;
52898;SDS011;38763;53.096;6.062;2022-07-04T00:19:53;6.35;;;3.92;;
52898;SDS011;38763;53.096;6.062;2022-07-04T00:22:19;7.15;;;4.28;;
52898;SDS011;38763;53.096;6.062;2022-07-04T00:24:44;8.27;;;4.05;;
52898;SDS011;38763;53.096;6.062;2022-07-04T00:27:10;7.25;;;4.03;;
52898;SDS011;38763;53.096;6.062;2022-07-04T00:29:35;8.40;;;4.50;;
52898;SDS011;38763;53.096;6.062;2022-07-04T00:32:01;7.00;;;4.10;;
52898;SDS011;38763;53.096;6.062;2022-07-04T00:34:27;7.95;;;4.20;;
52898;SDS011;38763;53.096;6.062;2022-07-04T00:36:53;8.25;;;4.75;;
52898;SDS011;38763;53.096;6.062;2022-07-04T00:39:19;8.18;;;4.40;;
52898;SDS011;38763;53.096;6.062;2022-07-04T00:41:44;7.28;;;4.68;;
52898;SDS011;38763;53.096;6.062;2022-07-04T00:44:11;9.98;;;4.28;;
52898;SDS011;38763;53.096;6.062;2022-07-04T00:46:37;10.93;;;4.85;;
52898;SDS011;38763;53.096;6.062;2022-07-04T00:49:04;7.43;;;4.75;;
52898;SDS011;38763;53.096;6.062;2022-07-04T00:51:30;11.25;;;4.78;;
52898;SDS011;38763;53.096;6.062;2022-07-04T00:53:57;8.52;;;4.30;;
52898;SDS011;38763;53.096;6.062;2022-07-04T00:56:23;7.65;;;4.97;;
52898;SDS011;38763;53.096;6.062;2022-07-04T00:58:50;8.43;;;4.22;;
52898;SDS011;38763;53.096;6.062;2022-07-04T01:01:19;7.40;;;4.43;;
52898;SDS011;38763;53.096;6.062;2022-07-04T01:03:45;7.53;;;4.57;;
52898;SDS011;38763;53.096;6.062;2022-07-04T01:06:12;9.18;;;4.68;;
52898;SDS011;38763;53.096;6.062;2022-07-04T01:08:39;6.95;;;4.32;;
52898;SDS011;38763;53.096;6.062;2022-07-04T01:11:06;7.00;;;4.65;;
52898;SDS011;38763;53.096;6.062;2022-07-04T01:13:32;7.15;;;4.57;;
52898;SDS011;38763;53.096;6.062;2022-07-04T01:15:59;13.20;;;4.88;;
52898;SDS011;38763;53.096;6.062;2022-07-04T01:18:25;8.45;;;4.90;;
52898;SDS011;38763;53.096;6.062;2022-07-04T01:20:51;7.55;;;4.78;;
52898;SDS011;38763;53.096;6.062;2022-07-04T01:23:16;8.63;;;5.07;;
52898;SDS011;38763;53.096;6.062;2022-07-04T01:25:42;8.57;;;5.05;;
52898;SDS011;38763;53.096;6.062;2022-07-04T01:28:08;12.15;;;5.68;;
52898;SDS011;38763;53.096;6.062;2022-07-04T01:30:34;8.13;;;5.00;;
52898;SDS011;38763;53.096;6.062;2022-07-04T01:33:01;8.55;;;5.10;;
52898;SDS011;38763;53.096;6.062;2022-07-04T01:35:27;10.70;;;5.55;;
52898;SDS011;38763;53.096;6.062;2022-07-04T01:37:53;9.05;;;5.47;;
52898;SDS011;38763;53.096;6.062;2022-07-04T01:40:19;9.40;;;5.38;;
52898;SDS011;38763;53.096;6.062;2022-07-04T01:42:45;12.30;;;6.07;;
52898;SDS011;38763;53.096;6.062;2022-07-04T01:45:11;9.25;;;5.30;;
52898;SDS011;38763;53.096;6.062;2022-07-04T01:47:37;8.88;;;5.13;;
52898;SDS011;38763;53.096;6.062;2022-07-04T01:50:05;8.63;;;5.40;;
52898;SDS011;38763;53.096;6.062;2022-07-04T01:52:32;9.23;;;5.40;;
52898;SDS011;38763;53.096;6.062;2022-07-04T01:54:58;9.35;;;5.70;;
52898;SDS011;38763;53.096;6.062;2022-07-04T01:57:23;9.77;;;5.43;;
52898;SDS011;38763;53.096;6.062;2022-07-04T01:59:49;10.07;;;5.55;;
52898;SDS011;38763;53.096;6.062;2022-07-04T02:02:34;11.57;;;6.50;;
52898;SDS011;38763;53.096;6.062;2022-07-04T02:04:59;9.40;;;5.90;;
52898;SDS011;38763;53.096;6.062;2022-07-04T02:07:25;12.43;;;5.95;;
52898;SDS011;38763;53.096;6.062;2022-07-04T02:09:51;9.23;;;6.25;;
52898;SDS011;38763;53.096;6.062;2022-07-04T02:12:17;11.40;;;6.38;;
52898;SDS011;38763;53.096;6.062;2022-07-04T02:15:01;12.82;;;6.18;;
52898;SDS011;38763;53.096;6.062;2022-07-04T02:17:27;10.57;;;5.80;;
52898;SDS011;38763;53.096;6.062;2022-07-04T02:19:52;12.52;;;6.47;;
52898;SDS011;38763;53.096;6.062;2022-07-04T02:22:18;14.30;;;6.97;;
52898;SDS011;38763;53.096;6.062;2022-07-04T02:24:43;10.40;;;6.60;;
52898;SDS011;38763;53.096;6.062;2022-07-04T02:27:09;10.85;;;6.75;;
52898;SDS011;38763;53.096;6.062;2022-07-04T02:29:35;11.10;;;6.47;;
52898;SDS011;38763;53.096;6.062;2022-07-04T02:32:01;12.15;;;6.85;;
52898;SDS011;38763;53.096;6.062;2022-07-04T02:34:28;8.85;;;6.20;;
52898;SDS011;38763;53.096;6.062;2022-07-04T02:36:53;10.02;;;6.38;;
52898;SDS011;38763;53.096;6.062;2022-07-04T02:39:19;10.85;;;7.70;;
52898;SDS011;38763;53.096;6.062;2022-07-04T02:41:45;10.98;;;6.70;;
52898;SDS011;38763;53.096;6.062;2022-07-04T02:44:11;10.82;;;6.55;;
52898;SDS011;38763;53.096;6.062;2022-07-04T02:46:36;10.52;;;6.53;;
52898;SDS011;38763;53.096;6.062;2022-07-04T02:49:02;12.45;;;6.90;;
52898;SDS011;38763;53.096;6.062;2022-07-04T02:51:29;12.43;;;6.05;;
52898;SDS011;38763;53.096;6.062;2022-07-04T02:53:54;9.80;;;6.18;;
52898;SDS011;38763;53.096;6.062;2022-07-04T02:56:22;10.90;;;6.53;;
52898;SDS011;38763;53.096;6.062;2022-07-04T02:58:47;15.07;;;6.25;;
52898;SDS011;38763;53.096;6.062;2022-07-04T03:01:13;12.23;;;6.55;;
52898;SDS011;38763;53.096;6.062;2022-07-04T03:03:40;10.30;;;6.60;;
52898;SDS011;38763;53.096;6.062;2022-07-04T03:06:09;9.80;;;6.35;;
52898;SDS011;38763;53.096;6.062;2022-07-04T03:08:35;10.98;;;6.22;;
52898;SDS011;38763;53.096;6.062;2022-07-04T03:11:02;9.65;;;6.45;;
52898;SDS011;38763;53.096;6.062;2022-07-04T03:13:28;12.13;;;6.65;;
52898;SDS011;38763;53.096;6.062;2022-07-04T03:15:54;11.13;;;6.40;;
52898;SDS011;38763;53.096;6.062;2022-07-04T03:18:20;9.65;;;6.20;;
52898;SDS011;38763;53.096;6.062;2022-07-04T03:20:46;8.52;;;6.03;;
52898;SDS011;38763;53.096;6.062;2022-07-04T03:23:12;10.20;;;6.35;;
52898;SDS011;38763;53.096;6.062;2022-07-04T03:25:38;11.18;;;6.20;;
52898;SDS011;38763;53.096;6.062;2022-07-04T03:28:05;11.50;;;6.63;;
52898;SDS011;38763;53.096;6.062;2022-07-04T03:30:31;10.95;;;6.82;;
52898;SDS011;38763;53.096;6.062;2022-07-04T03:32:57;11.60;;;6.57;;
52898;SDS011;38763;53.096;6.062;2022-07-04T03:35:23;9.73;;;6.40;;
52898;SDS011;38763;53.096;6.062;2022-07-04T03:37:49;12.95;;;6.97;;
52898;SDS011;38763;53.096;6.062;2022-07-04T03:40:16;12.35;;;6.75;;
52898;SDS011;38763;53.096;6.062;2022-07-04T03:42:41;11.68;;;7.50;;
52898;SDS011;38763;53.096;6.062;2022-07-04T03:45:07;12.00;;;5.93;;
52898;SDS011;38763;53.096;6.062;2022-07-04T03:47:33;11.02;;;6.65;;
52898;SDS011;38763;53.096;6.062;2022-07-04T03:49:59;13.00;;;6.60;;
52898;SDS011;38763;53.096;6.062;2022-07-04T03:52:24;10.75;;;6.40;;
52898;SDS011;38763;53.096;6.062;2022-07-04T03:54:50;13.05;;;7.65;;
52898;SDS011;38763;53.096;6.062;2022-07-04T03:57:16;11.43;;;6.93;;
52898;SDS011;38763;53.096;6.062;2022-07-04T03:59:42;12.60;;;7.00;;
52898;SDS011;38763;53.096;6.062;2022-07-04T04:02:07;11.73;;;7.05;;
52898;SDS011;38763;53.096;6.062;2022-07-04T04:04:33;14.20;;;7.18;;
52898;SDS011;38763;53.096;6.062;2022-07-04T04:07:17;10.70;;;7.07;;
52898;SDS011;38763;53.096;6.062;2022-07-04T04:09:43;12.20;;;7.47;;
52898;SDS011;38763;53.096;6.062;2022-07-04T04:12:09;13.65;;;7.07;;
52898;SDS011;38763;53.096;6.062;2022-07-04T04:14:34;11.70;;;6.55;;
52898;SDS011;38763;53.096;6.062;2022-07-04T04:17:00;14.75;;;6.95;;
52898;SDS011;38763;53.096;6.062;2022-07-04T04:19:25;12.30;;;6.20;;
52898;SDS011;38763;53.096;6.062;2022-07-04T04:21:51;10.35;;;6.60;;
52898;SDS011;38763;53.096;6.062;2022-07-04T04:24:17;11.35;;;6.50;;
52898;SDS011;38763;53.096;6.062;2022-07-04T04:26:42;10.00;;;6.32;;
52898;SDS011;38763;53.096;6.062;2022-07-04T04:29:08;13.68;;;6.25;;
52898;SDS011;38763;53.096;6.062;2022-07-04T04:31:34;12.70;;;6.25;;
52898;SDS011;38763;53.096;6.062;2022-07-04T04:34:00;10.82;;;6.43;;
52898;SDS011;38763;53.096;6.062;2022-07-04T04:36:25;12.48;;;6.85;;
52898;SDS011;38763;53.096;6.062;2022-07-04T04:38:51;13.27;;;6.85;;
52898;SDS011;38763;53.096;6.062;2022-07-04T04:41:17;12.30;;;6.20;;
52898;SDS011;38763;53.096;6.062;2022-07-04T04:43:42;12.88;;;7.00;;
52898;SDS011;38763;53.096;6.062;2022-07-04T04:46:08;12.00;;;6.90;;
52898;SDS011;38763;53.096;6.062;2022-07-04T04:48:34;16.85;;;6.80;;
52898;SDS011;38763;53.096;6.062;2022-07-04T04:51:00;10.75;;;6.25;;
52898;SDS011;38763;53.096;6.062;2022-07-04T04:53:26;13.75;;;7.20;;
52898;SDS011;38763;53.096;6.062;2022-07-04T04:55:52;16.88;;;7.18;;
52898;SDS011;38763;53.096;6.062;2022-07-04T04:58:19;14.55;;;7.13;;
52898;SDS011;38763;53.096;6.062;2022-07-04T05:00:45;11.60;;;7.18;;
52898;SDS011;38763;53.096;6.062;2022-07-04T05:03:11;12.70;;;7.70;;
52898;SDS011;38763;53.096;6.062;2022-07-04T05:05:37;15.35;;;7.22;;
52898;SDS011;38763;53.096;6.062;2022-07-04T05:08:02;13.10;;;7.93;;
52898;SDS011;38763;53.096;6.062;2022-07-04T05:10:28;16.75;;;7.57;;
52898;SDS011;38763;53.096;6.062;2022-07-04T05:12:54;13.48;;;7.60;;
52898;SDS011;38763;53.096;6.062;2022-07-04T05:15:20;14.00;;;7.45;;
52898;SDS011;38763;53.096;6.062;2022-07-04T05:17:46;15.32;;;7.80;;
52898;SDS011;38763;53.096;6.062;2022-07-04T05:20:12;14.35;;;8.02;;
52898;SDS011;38763;53.096;6.062;2022-07-04T05:22:37;13.30;;;7.32;;
52898;SDS011;38763;53.096;6.062;2022-07-04T05:25:03;17.58;;;6.88;;
52898;SDS011;38763;53.096;6.062;2022-07-04T05:27:29;12.93;;;7.03;;
52898;SDS011;38763;53.096;6.062;2022-07-04T05:29:56;10.80;;;7.00;;
52898;SDS011;38763;53.096;6.062;2022-07-04T05:32:23;16.90;;;7.43;;
52898;SDS011;38763;53.096;6.062;2022-07-04T05:34:49;17.10;;;7.68;;
52898;SDS011;38763;53.096;6.062;2022-07-04T05:37:15;11.85;;;6.85;;
52898;SDS011;38763;53.096;6.062;2022-07-04T05:39:40;13.38;;;7.22;;
52898;SDS011;38763;53.096;6.062;2022-07-04T05:42:06;11.55;;;6.88;;
52898;SDS011;38763;53.096;6.062;2022-07-04T05:44:31;13.57;;;7.53;;
52898;SDS011;38763;53.096;6.062;2022-07-04T05:46:57;19.42;;;6.85;;
52898;SDS011;38763;53.096;6.062;2022-07-04T05:49:23;12.23;;;6.88;;
52898;SDS011;38763;53.096;6.062;2022-07-04T05:51:48;11.70;;;6.32;;
52898;SDS011;38763;53.096;6.062;2022-07-04T05:54:14;12.15;;;6.53;;
52898;SDS011;38763;53.096;6.062;2022-07-04T05:56:39;15.43;;;5.88;;
52898;SDS011;38763;53.096;6.062;2022-07-04T05:59:07;11.30;;;5.85;;
52898;SDS011;38763;53.096;6.062;2022-07-04T06:01:33;12.75;;;5.35;;
52898;SDS011;38763;53.096;6.062;2022-07-04T06:03:58;11.27;;;5.63;;
52898;SDS011;38763;53.096;6.062;2022-07-04T06:06:24;13.27;;;5.20;;
52898;SDS011;38763;53.096;6.062;2022-07-04T06:08:49;12.23;;;5.10;;
52898;SDS011;38763;53.096;6.062;2022-07-04T06:11:15;13.98;;;5.18;;
52898;SDS011;38763;53.096;6.062;2022-07-04T06:13:42;12.95;;;4.50;;
52898;SDS011;38763;53.096;6.062;2022-07-04T06:16:08;17.10;;;4.68;;
52898;SDS011;38763;53.096;6.062;2022-07-04T06:18:34;11.32;;;4.38;;
52898;SDS011;38763;53.096;6.062;2022-07-04T06:20:59;13.73;;;4.78;;
52898;SDS011;38763;53.096;6.062;2022-07-04T06:23:25;8.98;;;3.88;;
52898;SDS011;38763;53.096;6.062;2022-07-04T06:25:51;13.15;;;4.00;;
52898;SDS011;38763;53.096;6.062;2022-07-04T06:28:17;8.73;;;3.88;;
52898;SDS011;38763;53.096;6.062;2022-07-04T06:30:42;12.73;;;4.05;;
52898;SDS011;38763;53.096;6.062;2022-07-04T06:33:08;11.20;;;4.00;;
52898;SDS011;38763;53.096;6.062;2022-07-04T06:35:33;11.73;;;4.30;;
52898;SDS011;38763;53.096;6.062;2022-07-04T06:38:15;15.05;;;3.90;;
52898;SDS011;38763;53.096;6.062;2022-07-04T06:40:42;8.15;;;3.13;;
52898;SDS011;38763;53.096;6.062;2022-07-04T06:43:08;11.15;;;4.28;;
52898;SDS011;38763;53.096;6.062;2022-07-04T06:45:35;10.85;;;3.67;;
52898;SDS011;38763;53.096;6.062;2022-07-04T06:48:01;9.52;;;3.42;;
52898;SDS011;38763;53.096;6.062;2022-07-04T06:50:30;9.18;;;3.80;;
52898;SDS011;38763;53.096;6.062;2022-07-04T06:53:04;13.82;;;3.10;;
52898;SDS011;38763;53.096;6.062;2022-07-04T06:55:31;11.23;;;3.30;;
52898;SDS011;38763;53.096;6.062;2022-07-04T06:57:57;7.70;;;2.72;;
52898;SDS011;38763;53.096;6.062;2022-07-04T07:00:23;11.82;;;3.45;;
52898;SDS011;38763;53.096;6.062;2022-07-04T07:02:49;9.88;;;3.33;;
52898;SDS011;38763;53.096;6.062;2022-07-04T07:05:15;10.07;;;2.65;;
52898;SDS011;38763;53.096;6.062;2022-07-04T07:07:40;7.28;;;2.58;;
52898;SDS011;38763;53.096;6.062;2022-07-04T07:10:06;8.90;;;2.28;;
52898;SDS011;38763;53.096;6.062;2022-07-04T07:12:33;8.23;;;2.60;;
52898;SDS011;38763;53.096;6.062;2022-07-04T07:14:59;7.60;;;2.50;;
52898;SDS011;38763;53.096;6.062;2022-07-04T07:17:26;8.25;;;2.40;;
52898;SDS011;38763;53.096;6.062;2022-07-04T07:19:52;6.68;;;2.35;;
52898;SDS011;38763;53.096;6.062;2022-07-04T07:22:18;4.88;;;2.20;;
52898;SDS011;38763;53.096;6.062;2022-07-04T07:24:44;7.85;;;2.35;;
52898;SDS011;38763;53.096;6.062;2022-07-04T07:27:10;7.50;;;2.10;;
52898;SDS011;38763;53.096;6.062;2022-07-04T07:29:36;6.82;;;2.20;;
52898;SDS011;38763;53.096;6.062;2022-07-04T07:32:03;5.15;;;1.95;;
52898;SDS011;38763;53.096;6.062;2022-07-04T07:34:29;8.77;;;2.38;;
52898;SDS011;38763;53.096;6.062;2022-07-04T07:36:56;5.43;;;1.88;;
52898;SDS011;38763;53.096;6.062;2022-07-04T07:39:21;5.55;;;2.17;;
52898;SDS011;38763;53.096;6.062;2022-07-04T07:41:47;6.85;;;2.10;;
52898;SDS011;38763;53.096;6.062;2022-07-04T07:44:13;5.93;;;2.30;;
52898;SDS011;38763;53.096;6.062;2022-07-04T07:46:38;5.97;;;2.03;;
52898;SDS011;38763;53.096;6.062;2022-07-04T07:49:05;6.40;;;2.13;;
52898;SDS011;38763;53.096;6.062;2022-07-04T07:51:30;6.82;;;2.10;;
52898;SDS011;38763;53.096;6.062;2022-07-04T07:53:56;6.85;;;2.28;;
52898;SDS011;38763;53.096;6.062;2022-07-04T07:56:22;5.95;;;1.90;;
52898;SDS011;38763;53.096;6.062;2022-07-04T07:58:48;6.00;;;1.88;;
52898;SDS011;38763;53.096;6.062;2022-07-04T08:01:14;3.70;;;1.77;;
52898;SDS011;38763;53.096;6.062;2022-07-04T08:03:40;6.60;;;1.50;;
52898;SDS011;38763;53.096;6.062;2022-07-04T08:06:25;3.33;;;1.60;;
52898;SDS011;38763;53.096;6.062;2022-07-04T08:08:51;3.90;;;1.60;;
52898;SDS011;38763;53.096;6.062;2022-07-04T08:11:16;5.20;;;1.77;;
52898;SDS011;38763;53.096;6.062;2022-07-04T08:13:43;2.95;;;1.25;;
52898;SDS011;38763;53.096;6.062;2022-07-04T08:16:09;5.85;;;1.50;;
52898;SDS011;38763;53.096;6.062;2022-07-04T08:18:35;5.28;;;1.40;;
52898;SDS011;38763;53.096;6.062;2022-07-04T08:21:00;4.60;;;1.40;;
52898;SDS011;38763;53.096;6.062;2022-07-04T08:23:27;6.57;;;1.50;;
52898;SDS011;38763;53.096;6.062;2022-07-04T08:25:53;4.28;;;1.60;;
52898;SDS011;38763;53.096;6.062;2022-07-04T08:28:19;3.25;;;1.30;;
52898;SDS011;38763;53.096;6.062;2022-07-04T08:30:44;4.45;;;1.10;;
52898;SDS011;38763;53.096;6.062;2022-07-04T08:33:10;3.10;;;1.15;;
52898;SDS011;38763;53.096;6.062;2022-07-04T08:35:36;3.78;;;1.30;;
52898;SDS011;38763;53.096;6.062;2022-07-04T08:38:01;4.03;;;1.38;;
52898;SDS011;38763;53.096;6.062;2022-07-04T08:40:28;2.97;;;1.20;;
52898;SDS011;38763;53.096;6.062;2022-07-04T08:42:55;3.10;;;1.00;;
52898;SDS011;38763;53.096;6.062;2022-07-04T08:45:28;7.05;;;1.40;;
52898;SDS011;38763;53.096;6.062;2022-07-04T08:47:59;3.67;;;1.02;;
52898;SDS011;38763;53.096;6.062;2022-07-04T08:50:30;3.78;;;1.10;;
52898;SDS011;38763;53.096;6.062;2022-07-04T08:53:03;4.18;;;1.13;;
52898;SDS011;38763;53.096;6.062;2022-07-04T08:55:34;5.45;;;1.30;;
52898;SDS011;38763;53.096;6.062;2022-07-04T08:58:18;3.40;;;1.17;;
52898;SDS011;38763;53.096;6.062;2022-07-04T09:00:51;4.00;;;1.10;;
52898;SDS011;38763;53.096;6.062;2022-07-04T09:03:25;2.90;;;1.05;;
52898;SDS011;38763;53.096;6.062;2022-07-04T09:05:52;2.70;;;1.10;;
52898;SDS011;38763;53.096;6.062;2022-07-04T09:08:18;2.22;;;1.10;;
52898;SDS011;38763;53.096;6.062;2022-07-04T09:10:45;2.97;;;1.08;;
52898;SDS011;38763;53.096;6.062;2022-07-04T09:13:12;4.20;;;1.30;;
52898;SDS011;38763;53.096;6.062;2022-07-04T09:15:40;6.25;;;1.45;;
52898;SDS011;38763;53.096;6.062;2022-07-04T09:18:18;3.83;;;1.40;;
52898;SDS011;38763;53.096;6.062;2022-07-04T09:20:47;3.80;;;1.33;;
52898;SDS011;38763;53.096;6.062;2022-07-04T09:23:21;2.65;;;1.20;;
52898;SDS011;38763;53.096;6.062;2022-07-04T09:25:49;2.95;;;1.42;;
52898;SDS011;38763;53.096;6.062;2022-07-04T09:28:35;5.80;;;1.50;;
52898;SDS011;38763;53.096;6.062;2022-07-04T09:31:02;4.85;;;1.30;;
52898;SDS011;38763;53.096;6.062;2022-07-04T09:33:54;3.15;;;1.20;;
52898;SDS011;38763;53.096;6.062;2022-07-04T09:36:23;4.13;;;1.60;;
52898;SDS011;38763;53.096;6.062;2022-07-04T09:44:27;3.40;;;1.35;;
52898;SDS011;38763;53.096;6.062;2022-07-04T09:47:00;4.43;;;1.30;;
52898;SDS011;38763;53.096;6.062;2022-07-04T09:50:01;4.85;;;1.50;;
52898;SDS011;38763;53.096;6.062;2022-07-04T09:52:45;1.75;;;1.10;;
52898;SDS011;38763;53.096;6.062;2022-07-04T09:55:19;3.42;;;1.00;;
52898;SDS011;38763;53.096;6.062;2022-07-04T09:57:51;3.35;;;1.08;;
52898;SDS011;38763;53.096;6.062;2022-07-04T10:02:54;3.20;;;1.00;;
52898;SDS011;38763;53.096;6.062;2022-07-04T10:05:27;4.47;;;1.27;;
52898;SDS011;38763;53.096;6.062;2022-07-04T10:07:55;2.65;;;1.20;;
52898;SDS011;38763;53.096;6.062;2022-07-04T10:12:54;3.88;;;1.30;;
52898;SDS011;38763;53.096;6.062;2022-07-04T10:15:21;3.58;;;1.10;;
52898;SDS011;38763;53.096;6.062;2022-07-04T10:17:48;3.22;;;1.10;;
52898;SDS011;38763;53.096;6.062;2022-07-04T10:20:13;4.20;;;1.02;;
52898;SDS011;38763;53.096;6.062;2022-07-04T10:22:40;2.72;;;1.20;;
52898;SDS011;38763;53.096;6.062;2022-07-04T10:25:06;2.92;;;1.08;;
52898;SDS011;38763;53.096;6.062;2022-07-04T10:27:33;5.07;;;1.00;;
52898;SDS011;38763;53.096;6.062;2022-07-04T10:29:59;4.18;;;1.00;;
52898;SDS011;38763;53.096;6.062;2022-07-04T10:32:26;2.47;;;0.90;;
52898;SDS011;38763;53.096;6.062;2022-07-04T10:34:53;2.50;;;0.70;;
52898;SDS011;38763;53.096;6.062;2022-07-04T10:37:19;3.35;;;0.90;;
52898;SDS011;38763;53.096;6.062;2022-07-04T10:39:46;2.15;;;0.70;;
52898;SDS011;38763;53.096;6.062;2022-07-04T10:42:22;3.40;;;0.90;;
52898;SDS011;38763;53.096;6.062;2022-07-04T10:44:54;1.38;;;0.80;;
52898;SDS011;38763;53.096;6.062;2022-07-04T10:47:25;4.47;;;0.90;;
52898;SDS011;38763;53.096;6.062;2022-07-04T10:49:54;3.00;;;1.00;;
52898;SDS011;38763;53.096;6.062;2022-07-04T10:52:20;2.92;;;1.08;;
52898;SDS011;38763;53.096;6.062;2022-07-04T10:54:46;4.10;;;1.10;;
52898;SDS011;38763;53.096;6.062;2022-07-04T10:57:18;1.83;;;1.08;;
52898;SDS011;38763;53.096;6.062;2022-07-04T11:02:32;5.90;;;1.00;;
52898;SDS011;38763;53.096;6.062;2022-07-04T11:18:00;2.70;;;1.10;;
52898;SDS011;38763;53.096;6.062;2022-07-04T11:20:31;2.85;;;0.93;;
52898;SDS011;38763;53.096;6.062;2022-07-04T11:23:04;4.15;;;1.17;;
52898;SDS011;38763;53.096;6.062;2022-07-04T11:25:31;3.00;;;1.00;;
52898;SDS011;38763;53.096;6.062;2022-07-04T11:27:57;3.38;;;1.10;;
52898;SDS011;38763;53.096;6.062;2022-07-04T11:30:22;3.75;;;1.00;;
52898;SDS011;38763;53.096;6.062;2022-07-04T11:32:48;2.80;;;1.00;;
52898;SDS011;38763;53.096;6.062;2022-07-04T11:35:19;3.28;;;1.13;;
52898;SDS011;38763;53.096;6.062;2022-07-04T11:37:45;2.75;;;1.00;;
52898;SDS011;38763;53.096;6.062;2022-07-04T11:40:20;4.75;;;1.40;;
52898;SDS011;38763;53.096;6.062;2022-07-04T11:43:05;3.20;;;1.38;;
52898;SDS011;38763;53.096;6.062;2022-07-04T11:45:51;3.67;;;1.30;;
52898;SDS011;38763;53.096;6.062;2022-07-04T11:48:24;3.75;;;1.15;;
52898;SDS011;38763;53.096;6.062;2022-07-04T11:50:52;4.07;;;1.38;;
52898;SDS011;38763;53.096;6.062;2022-07-04T11:53:18;4.05;;;1.10;;
52898;SDS011;38763;53.096;6.062;2022-07-04T11:55:57;6.18;;;1.27;;
52898;SDS011;38763;53.096;6.062;2022-07-04T11:58:38;4.35;;;1.30;;
52898;SDS011;38763;53.096;6.062;2022-07-04T12:01:05;5.22;;;1.20;;
52898;SDS011;38763;53.096;6.062;2022-07-04T12:03:32;5.25;;;0.82;;
52898;SDS011;38763;53.096;6.062;2022-07-04T12:06:02;4.82;;;1.30;;
52898;SDS011;38763;53.096;6.062;2022-07-04T12:08:28;6.63;;;1.30;;
52898;SDS011;38763;53.096;6.062;2022-07-04T12:10:54;4.88;;;1.50;;
52898;SDS011;38763;53.096;6.062;2022-07-04T12:13:20;3.10;;;1.10;;
52898;SDS011;38763;53.096;6.062;2022-07-04T12:15:46;4.80;;;1.15;;
52898;SDS011;38763;53.096;6.062;2022-07-04T12:18:26;2.95;;;1.00;;
52898;SDS011;38763;53.096;6.062;2022-07-04T12:20:54;2.00;;;0.90;;
52898;SDS011;38763;53.096;6.062;2022-07-04T12:23:35;3.15;;;1.00;;
52898;SDS011;38763;53.096;6.062;2022-07-04T12:26:01;2.42;;;1.02;;
52898;SDS011;38763;53.096;6.062;2022-07-04T12:28:34;2.15;;;0.93;;
52898;SDS011;38763;53.096;6.062;2022-07-04T12:33:28;3.70;;;0.95;;
52898;SDS011;38763;53.096;6.062;2022-07-04T12:46:14;2.58;;;0.82;;
52898;SDS011;38763;53.096;6.062;2022-07-04T12:48:49;2.88;;;0.90;;
52898;SDS011;38763;53.096;6.062;2022-07-04T12:53:44;2.20;;;0.65;;
52898;SDS011;38763;53.096;6.062;2022-07-04T12:56:26;4.65;;;0.68;;
52898;SDS011;38763;53.096;6.062;2022-07-04T12:58:56;4.18;;;0.80;;
52898;SDS011;38763;53.096;6.062;2022-07-04T13:01:26;2.30;;;0.82;;
52898;SDS011;38763;53.096;6.062;2022-07-04T13:03:52;2.70;;;0.90;;
52898;SDS011;38763;53.096;6.062;2022-07-04T13:06:18;1.75;;;0.90;;
52898;SDS011;38763;53.096;6.062;2022-07-04T13:08:44;2.88;;;0.93;;
52898;SDS011;38763;53.096;6.062;2022-07-04T13:11:10;3.25;;;1.00;;
52898;SDS011;38763;53.096;6.062;2022-07-04T13:13:54;2.90;;;1.00;;
52898;SDS011;38763;53.096;6.062;2022-07-04T13:16:20;3.60;;;1.10;;
52898;SDS011;38763;53.096;6.062;2022-07-04T13:18:45;2.63;;;0.82;;
52898;SDS011;38763;53.096;6.062;2022-07-04T13:21:11;2.85;;;0.80;;
52898;SDS011;38763;53.096;6.062;2022-07-04T13:23:37;1.15;;;0.73;;
52898;SDS011;38763;53.096;6.062;2022-07-04T13:26:03;3.85;;;0.88;;
52898;SDS011;38763;53.096;6.062;2022-07-04T13:28:28;3.33;;;1.10;;
52898;SDS011;38763;53.096;6.062;2022-07-04T13:30:54;2.35;;;0.90;;
52898;SDS011;38763;53.096;6.062;2022-07-04T13:33:20;2.15;;;0.65;;
52898;SDS011;38763;53.096;6.062;2022-07-04T13:35:46;2.90;;;0.75;;
52898;SDS011;38763;53.096;6.062;2022-07-04T13:38:12;4.25;;;0.80;;
52898;SDS011;38763;53.096;6.062;2022-07-04T13:40:41;1.33;;;0.60;;
52898;SDS011;38763;53.096;6.062;2022-07-04T13:43:08;2.47;;;0.63;;
52898;SDS011;38763;53.096;6.062;2022-07-04T13:45:39;3.55;;;0.80;;
52898;SDS011;38763;53.096;6.062;2022-07-04T13:48:08;3.08;;;0.70;;
52898;SDS011;38763;53.096;6.062;2022-07-04T13:50:33;3.20;;;0.85;;
52898;SDS011;38763;53.096;6.062;2022-07-04T13:53:02;3.38;;;0.70;;
52898;SDS011;38763;53.096;6.062;2022-07-04T13:55:32;2.47;;;0.75;;
52898;SDS011;38763;53.096;6.062;2022-07-04T13:58:01;1.75;;;0.70;;
52898;SDS011;38763;53.096;6.062;2022-07-04T14:00:27;3.90;;;0.90;;
52898;SDS011;38763;53.096;6.062;2022-07-04T14:02:53;3.13;;;0.80;;
52898;SDS011;38763;53.096;6.062;2022-07-04T14:05:18;1.75;;;0.55;;
52898;SDS011;38763;53.096;6.062;2022-07-04T14:07:44;2.45;;;0.60;;
52898;SDS011;38763;53.096;6.062;2022-07-04T14:10:10;1.63;;;0.50;;
52898;SDS011;38763;53.096;6.062;2022-07-04T14:12:36;2.58;;;0.60;;
52898;SDS011;38763;53.096;6.062;2022-07-04T14:15:02;2.45;;;0.70;;
52898;SDS011;38763;53.096;6.062;2022-07-04T14:17:28;1.40;;;0.52;;
52898;SDS011;38763;53.096;6.062;2022-07-04T14:19:54;2.45;;;0.65;;
52898;SDS011;38763;53.096;6.062;2022-07-04T14:22:20;2.10;;;0.77;;
52898;SDS011;38763;53.096;6.062;2022-07-04T14:24:46;1.65;;;0.60;;
52898;SDS011;38763;53.096;6.062;2022-07-04T14:27:12;2.33;;;0.85;;
52898;SDS011;38763;53.096;6.062;2022-07-04T14:29:38;1.35;;;0.60;;
52898;SDS011;38763;53.096;6.062;2022-07-04T14:32:03;1.98;;;0.60;;
52898;SDS011;38763;53.096;6.062;2022-07-04T14:34:29;1.40;;;0.50;;
52898;SDS011;38763;53.096;6.062;2022-07-04T14:36:55;1.73;;;0.75;;
52898;SDS011;38763;53.096;6.062;2022-07-04T14:39:20;2.95;;;0.80;;
52898;SDS011;38763;53.096;6.062;2022-07-04T14:41:46;2.90;;;0.55;;
52898;SDS011;38763;53.096;6.062;2022-07-04T14:44:13;2.35;;;0.80;;
52898;SDS011;38763;53.096;6.062;2022-07-04T14:46:38;1.67;;;0.70;;
52898;SDS011;38763;53.096;6.062;2022-07-04T14:49:04;5.03;;;0.80;;
52898;SDS011;38763;53.096;6.062;2022-07-04T14:51:29;5.05;;;0.80;;
52898;SDS011;38763;53.096;6.062;2022-07-04T14:53:55;4.45;;;0.73;;
52898;SDS011;38763;53.096;6.062;2022-07-04T14:56:21;1.58;;;0.80;;
52898;SDS011;38763;53.096;6.062;2022-07-04T14:58:46;2.25;;;0.80;;
52898;SDS011;38763;53.096;6.062;2022-07-04T15:01:12;2.17;;;0.77;;
52898;SDS011;38763;53.096;6.062;2022-07-04T15:03:38;1.88;;;0.90;;
52898;SDS011;38763;53.096;6.062;2022-07-04T15:06:03;1.90;;;0.60;;
52898;SDS011;38763;53.096;6.062;2022-07-04T15:08:29;2.70;;;0.65;;
52898;SDS011;38763;53.096;6.062;2022-07-04T15:10:55;2.17;;;0.63;;
52898;SDS011;38763;53.096;6.062;2022-07-04T15:13:20;2.30;;;0.80;;
52898;SDS011;38763;53.096;6.062;2022-07-04T15:15:46;2.15;;;0.63;;
52898;SDS011;38763;53.096;6.062;2022-07-04T15:18:11;1.25;;;0.52;;
52898;SDS011;38763;53.096;6.062;2022-07-04T15:20:37;2.25;;;0.63;;
52898;SDS011;38763;53.096;6.062;2022-07-04T15:23:22;2.00;;;0.80;;
52898;SDS011;38763;53.096;6.062;2022-07-04T15:26:07;3.13;;;0.70;;